Flight Number: AVA3141 Duration: 1:15
Departure: Pampa Grande (SPJB) at 01:00 Distance: 365.121 Nm
Arrival: Iquitos (SPQT) at 02:15 Equipment: B1900D

Weather Information
404 Not Found

Not Found

The requested URL /data/observations/metar/decoded/SPJB.TXT was not found on this server.


Sunrise: 11:23 Sunset: 23:10 (UTC)

Iquitos, Peru (SPQT) 03-45S 073-15W 126M Aug 14, 2020 - 07:00 PM EDT / 2020.08.14 2300 UTC
Wind: from the N (010 degrees) at 3 MPH (3 KT):0
Visibility: greater than 7 mile(s):0
Sky conditions: mostly cloudy Temperature: 78 F (26 C) Dew Point: 75 F (24 C) Relative Humidity: 88% Pressure (altimeter): 29.77 in. Hg (1008 hPa)
ob: SPQT 142300Z 01003KT 9999 FEW020 BKN100 26/24 Q1008 NOSIG RMK BIRD HAZARD PP000 cycle: 23
Sunrise: 11:00 Sunset: 22:54 (UTC)

TAF:2020/08/14 18:39 TAF TAF AMD SPQT 141828Z 1418/1518 30003KT 9999 BKN015 BKN100 TX28/1421Z TN23/1511Z TEMPO 1418/1421 31010KT 0800 +SHRA BKN005 FEW020TCU OVC070 TEMPO 1508/1512 00000KT 1000 PRFG BKN005 BKN080

This route has never been flown.

Route map